createdAt,value
2022-12-31T00:01:41.872Z,2.83
2022-12-31T00:04:08.252Z,3.47
2022-12-31T00:06:35.705Z,3.00
2022-12-31T00:09:03.705Z,2.95
2022-12-31T00:11:30.864Z,3.13
2022-12-31T00:13:57.614Z,3.40
2022-12-31T00:16:29.091Z,3.88
2022-12-31T00:18:56.370Z,4.13
2022-12-31T00:21:22.857Z,3.70
2022-12-31T00:23:49.639Z,2.80
2022-12-31T00:26:17.168Z,3.47
2022-12-31T00:28:43.890Z,3.58
2022-12-31T00:31:12.168Z,6.57
2022-12-31T00:33:38.733Z,6.22
2022-12-31T00:36:13.171Z,5.45
2022-12-31T00:38:40.034Z,4.45
2022-12-31T00:41:06.957Z,3.67
2022-12-31T00:43:33.464Z,3.30
2022-12-31T00:46:00.018Z,3.13
2022-12-31T00:48:26.818Z,3.08
2022-12-31T00:50:53.788Z,2.60
2022-12-31T00:53:20.353Z,3.35
2022-12-31T00:55:46.986Z,3.00
2022-12-31T00:58:13.402Z,3.47
2022-12-31T01:00:40.184Z,3.13
2022-12-31T01:03:07.185Z,2.60
2022-12-31T01:05:34.471Z,2.22
2022-12-31T01:08:00.953Z,3.17
2022-12-31T01:10:46.081Z,2.80
2022-12-31T01:13:12.603Z,3.28
2022-12-31T01:15:39.463Z,2.40
2022-12-31T01:18:07.256Z,2.42
2022-12-31T01:20:41.206Z,2.63
2022-12-31T01:23:08.351Z,2.60
2022-12-31T01:25:35.605Z,2.83
2022-12-31T01:28:02.303Z,3.10
2022-12-31T01:30:28.855Z,3.05
2022-12-31T01:32:55.255Z,2.65
2022-12-31T01:35:21.725Z,2.25
2022-12-31T01:37:48.271Z,2.72
2022-12-31T01:40:14.999Z,2.83
2022-12-31T01:42:41.347Z,2.55
2022-12-31T01:45:11.828Z,2.40
2022-12-31T01:47:40.023Z,2.58
2022-12-31T01:50:10.055Z,2.55
2022-12-31T01:52:42.007Z,2.75
2022-12-31T01:55:17.394Z,2.30
2022-12-31T01:57:45.612Z,3.05
2022-12-31T02:00:12.192Z,3.05
2022-12-31T02:02:38.793Z,2.53
2022-12-31T02:05:08.969Z,2.47
2022-12-31T02:07:35.381Z,2.95
2022-12-31T02:10:01.803Z,2.17
2022-12-31T02:12:28.270Z,2.58
2022-12-31T02:14:55.159Z,2.30
2022-12-31T02:17:27.717Z,2.53
2022-12-31T02:20:13.086Z,3.80
2022-12-31T02:23:02.830Z,4.88
2022-12-31T02:25:38.433Z,2.65
2022-12-31T02:28:23.736Z,3.65
2022-12-31T02:31:01.244Z,2.30
2022-12-31T02:33:27.647Z,2.63
2022-12-31T02:35:56.025Z,3.05
2022-12-31T02:38:30.041Z,2.30
2022-12-31T02:40:56.819Z,2.53
2022-12-31T02:43:23.803Z,2.58
2022-12-31T02:46:06.487Z,2.50
2022-12-31T02:48:33.036Z,2.33
2022-12-31T02:51:18.298Z,2.35
2022-12-31T02:53:47.672Z,1.98
2022-12-31T02:56:24.115Z,3.38
2022-12-31T03:01:57.316Z,2.42
2022-12-31T03:04:33.102Z,1.98
2022-12-31T03:07:00.783Z,3.03
2022-12-31T03:09:27.130Z,2.30
2022-12-31T03:12:11.916Z,2.75
2022-12-31T03:14:38.380Z,2.87
2022-12-31T03:17:04.832Z,2.03
2022-12-31T03:19:49.928Z,2.75
2022-12-31T03:22:28.179Z,2.67
2022-12-31T03:25:20.924Z,2.47
2022-12-31T03:27:47.589Z,2.65
2022-12-31T03:30:15.252Z,2.30
2022-12-31T03:32:42.603Z,2.85
2022-12-31T03:35:09.935Z,2.97
2022-12-31T03:37:36.318Z,2.78
2022-12-31T03:40:02.777Z,2.97
2022-12-31T03:42:29.113Z,3.40
2022-12-31T03:44:55.654Z,3.53
2022-12-31T03:47:22.072Z,3.03
2022-12-31T03:49:48.649Z,2.80
2022-12-31T03:52:15.082Z,2.97
2022-12-31T03:54:41.552Z,2.65
2022-12-31T03:57:07.922Z,3.70
2022-12-31T03:59:34.295Z,3.78
2022-12-31T04:02:00.956Z,5.65
2022-12-31T04:04:27.489Z,5.97
2022-12-31T04:06:53.820Z,6.38
2022-12-31T04:09:20.406Z,7.50
2022-12-31T04:11:46.766Z,7.55
2022-12-31T04:14:13.195Z,7.50
2022-12-31T04:16:39.874Z,8.60
2022-12-31T04:19:06.567Z,8.25
2022-12-31T04:21:35.174Z,7.93
2022-12-31T04:24:02.603Z,7.85
2022-12-31T04:26:29.033Z,7.15
2022-12-31T04:28:55.438Z,7.10
2022-12-31T04:31:21.868Z,6.57
2022-12-31T04:33:48.269Z,7.50
2022-12-31T04:36:14.678Z,6.68
2022-12-31T04:38:41.054Z,7.63
2022-12-31T04:41:23.911Z,6.82
2022-12-31T04:43:51.389Z,6.15
2022-12-31T04:46:19.377Z,6.57
2022-12-31T04:48:46.053Z,6.50
2022-12-31T04:51:13.026Z,7.35
2022-12-31T04:53:39.557Z,8.40
2022-12-31T04:56:06.662Z,7.60
2022-12-31T04:58:34.155Z,7.32
2022-12-31T05:01:00.820Z,7.07
2022-12-31T05:03:27.842Z,6.60
2022-12-31T05:05:54.596Z,6.00
2022-12-31T05:08:21.084Z,4.35
2022-12-31T05:10:48.232Z,3.28
2022-12-31T05:13:14.939Z,2.72
2022-12-31T05:15:41.752Z,2.60
2022-12-31T05:18:08.300Z,3.05
2022-12-31T05:20:35.300Z,3.28
2022-12-31T05:23:01.779Z,2.80
2022-12-31T05:25:28.184Z,2.90
2022-12-31T05:27:54.588Z,2.88
2022-12-31T05:30:21.422Z,2.80
2022-12-31T05:32:47.753Z,2.72
2022-12-31T05:35:14.216Z,3.03
2022-12-31T05:37:40.629Z,3.65
2022-12-31T05:40:07.345Z,5.38
2022-12-31T05:42:33.687Z,5.43
2022-12-31T05:45:00.030Z,3.95
2022-12-31T05:47:26.633Z,3.67
2022-12-31T05:49:53.090Z,3.33
2022-12-31T05:52:19.459Z,4.40
2022-12-31T05:54:45.840Z,5.05
2022-12-31T05:57:12.323Z,5.25
2022-12-31T05:59:38.819Z,4.72
2022-12-31T06:02:05.483Z,3.17
2022-12-31T06:04:31.992Z,2.03
2022-12-31T06:06:58.431Z,2.75
2022-12-31T06:09:24.851Z,2.40
2022-12-31T06:11:51.244Z,1.77
2022-12-31T06:14:17.652Z,3.17
2022-12-31T06:16:44.122Z,3.05
2022-12-31T06:19:10.608Z,3.20
2022-12-31T06:21:37.086Z,2.75
2022-12-31T06:24:03.813Z,2.75
2022-12-31T06:26:30.176Z,2.90
2022-12-31T06:28:56.613Z,2.42
2022-12-31T06:31:23.327Z,2.60
2022-12-31T06:33:49.830Z,2.17
2022-12-31T06:36:16.392Z,3.33
2022-12-31T06:38:43.405Z,2.65
2022-12-31T06:41:11.818Z,2.20
2022-12-31T06:43:38.621Z,1.65
2022-12-31T06:46:06.258Z,1.40
2022-12-31T06:48:32.933Z,1.38
2022-12-31T06:51:05.822Z,1.40
2022-12-31T06:53:32.501Z,1.65
2022-12-31T06:55:59.052Z,1.38
2022-12-31T06:58:25.580Z,1.40
2022-12-31T07:01:10.825Z,1.40
2022-12-31T07:03:43.848Z,0.93
2022-12-31T07:06:16.080Z,1.20
2022-12-31T07:08:42.388Z,1.48
2022-12-31T07:11:08.754Z,1.02
2022-12-31T07:13:55.377Z,1.27
2022-12-31T07:16:40.511Z,1.52
2022-12-31T07:19:16.039Z,1.63
2022-12-31T07:21:42.539Z,1.77
2022-12-31T07:24:09.806Z,1.25
2022-12-31T07:26:56.999Z,1.50
2022-12-31T07:29:32.431Z,1.38
2022-12-31T07:34:25.044Z,1.63
2022-12-31T07:36:57.548Z,1.35
2022-12-31T07:39:42.904Z,1.48
2022-12-31T07:42:22.132Z,1.63
2022-12-31T07:45:01.188Z,1.40
2022-12-31T07:47:28.162Z,1.23
2022-12-31T07:49:55.095Z,1.55
2022-12-31T07:52:22.041Z,1.40
2022-12-31T07:54:48.722Z,1.63
2022-12-31T07:57:16.809Z,1.60
2022-12-31T07:59:49.055Z,1.80
2022-12-31T08:02:18.367Z,1.75
2022-12-31T08:05:04.232Z,2.05
2022-12-31T08:07:39.684Z,2.17
2022-12-31T08:10:06.068Z,1.60
2022-12-31T08:12:33.956Z,2.10
2022-12-31T08:15:00.577Z,2.10
2022-12-31T08:17:27.123Z,2.40
2022-12-31T08:19:53.767Z,2.60
2022-12-31T08:22:26.036Z,3.10
2022-12-31T08:25:11.134Z,3.00
2022-12-31T08:27:42.251Z,3.00
2022-12-31T08:30:19.972Z,3.03
2022-12-31T08:33:05.372Z,3.08
2022-12-31T08:35:52.007Z,3.00
2022-12-31T08:38:42.001Z,3.33
2022-12-31T08:41:14.464Z,2.97
2022-12-31T08:43:59.779Z,6.03
2022-12-31T08:46:28.565Z,4.05
2022-12-31T08:48:55.146Z,3.33
2022-12-31T08:51:22.968Z,2.47
2022-12-31T08:53:49.773Z,3.20
2022-12-31T08:56:25.620Z,3.10
2022-12-31T08:58:52.002Z,2.13
2022-12-31T09:01:22.147Z,2.47
2022-12-31T09:03:54.590Z,1.80
2022-12-31T09:06:28.776Z,1.90
2022-12-31T09:08:58.892Z,1.60
2022-12-31T09:11:31.158Z,1.73
2022-12-31T09:14:06.837Z,1.35
2022-12-31T09:16:39.292Z,1.80
2022-12-31T09:19:05.733Z,1.60
2022-12-31T09:21:32.578Z,1.10
2022-12-31T09:24:03.040Z,1.40
2022-12-31T09:26:51.225Z,1.45
2022-12-31T09:29:29.529Z,1.40
2022-12-31T09:31:58.964Z,1.42
2022-12-31T09:34:35.981Z,1.88
2022-12-31T09:37:15.609Z,1.70
2022-12-31T09:39:46.210Z,1.75
2022-12-31T09:42:50.947Z,1.95
2022-12-31T09:45:20.281Z,2.15
2022-12-31T09:47:46.632Z,2.60
2022-12-31T09:50:18.612Z,2.33
2022-12-31T09:53:03.193Z,2.30
2022-12-31T09:55:38.281Z,2.20
2022-12-31T09:58:24.735Z,1.67
2022-12-31T10:01:00.459Z,2.00
2022-12-31T10:03:35.645Z,2.10
2022-12-31T10:06:11.875Z,2.70
2022-12-31T10:08:58.835Z,1.95
2022-12-31T10:11:43.609Z,2.17
2022-12-31T10:14:47.423Z,2.80
2022-12-31T10:17:14.195Z,1.80
2022-12-31T10:19:59.539Z,2.30
2022-12-31T10:22:25.877Z,1.80
2022-12-31T10:24:52.229Z,2.53
2022-12-31T10:27:37.634Z,3.58
2022-12-31T10:30:13.397Z,3.33
2022-12-31T10:32:58.636Z,2.72
2022-12-31T10:35:36.136Z,3.55
2022-12-31T10:38:21.181Z,4.43
2022-12-31T10:40:53.775Z,3.08
2022-12-31T10:43:34.832Z,3.15
2022-12-31T10:46:01.241Z,4.55
2022-12-31T10:48:36.559Z,2.78
2022-12-31T10:51:08.942Z,3.00
2022-12-31T10:53:54.059Z,3.42
2022-12-31T10:56:39.664Z,2.70
2022-12-31T11:01:41.494Z,2.38
2022-12-31T11:04:07.995Z,2.60
2022-12-31T11:06:43.518Z,1.98
2022-12-31T11:09:26.503Z,2.28
2022-12-31T11:12:02.189Z,3.08
2022-12-31T11:14:28.541Z,2.92
2022-12-31T11:16:58.872Z,2.83
2022-12-31T11:19:31.579Z,2.47
2022-12-31T11:22:16.251Z,2.42
2022-12-31T11:25:01.406Z,6.68
2022-12-31T11:27:49.503Z,4.10
2022-12-31T11:30:34.934Z,4.97
2022-12-31T11:33:07.367Z,3.90
2022-12-31T11:35:33.849Z,5.57
2022-12-31T11:38:18.898Z,3.42
2022-12-31T11:40:54.949Z,3.20
2022-12-31T11:43:24.675Z,3.33
2022-12-31T11:45:57.419Z,3.38
2022-12-31T11:48:32.171Z,2.40
2022-12-31T11:53:34.609Z,2.60
2022-12-31T11:56:07.234Z,2.60
2022-12-31T11:58:33.705Z,2.38
2022-12-31T12:01:05.654Z,2.67
2022-12-31T12:03:32.499Z,3.35
2022-12-31T12:05:59.280Z,2.80
2022-12-31T12:08:26.960Z,2.67
2022-12-31T12:10:57.138Z,3.03
2022-12-31T12:13:24.417Z,2.85
2022-12-31T12:15:52.423Z,2.30
2022-12-31T12:18:24.831Z,2.90
2022-12-31T12:20:51.450Z,2.70
2022-12-31T12:23:24.187Z,2.40
2022-12-31T12:25:50.920Z,2.55
2022-12-31T12:28:25.683Z,3.20
2022-12-31T12:30:55.106Z,2.08
2022-12-31T12:33:21.824Z,2.30
2022-12-31T12:35:48.388Z,2.35
2022-12-31T12:38:14.689Z,2.17
2022-12-31T12:40:41.482Z,2.95
2022-12-31T12:43:21.058Z,2.35
2022-12-31T12:45:51.757Z,1.90
2022-12-31T12:48:25.804Z,3.17
2022-12-31T12:50:52.239Z,2.50
2022-12-31T12:53:18.638Z,2.70
2022-12-31T12:55:51.535Z,2.42
2022-12-31T12:58:19.323Z,2.00
2022-12-31T13:00:51.733Z,3.88
2022-12-31T13:03:36.946Z,3.03
2022-12-31T13:06:09.495Z,3.50
2022-12-31T13:08:51.126Z,5.20
2022-12-31T13:11:47.166Z,5.63
2022-12-31T13:16:42.521Z,6.63
2022-12-31T13:19:16.583Z,6.00
2022-12-31T13:21:43.087Z,4.32
2022-12-31T13:24:09.405Z,3.72
2022-12-31T13:26:39.364Z,3.47
2022-12-31T13:29:08.235Z,3.83
2022-12-31T13:31:36.387Z,3.10
2022-12-31T13:34:05.726Z,3.22
2022-12-31T13:36:33.768Z,4.53
2022-12-31T13:39:02.758Z,10.65
2022-12-31T13:41:32.800Z,14.25
2022-12-31T13:44:17.259Z,3.60
2022-12-31T13:46:52.880Z,3.28
2022-12-31T13:49:24.479Z,3.75
2022-12-31T13:52:13.869Z,2.65
2022-12-31T13:54:46.357Z,2.90
2022-12-31T13:57:24.980Z,4.47
2022-12-31T13:59:54.826Z,3.22
2022-12-31T14:02:47.707Z,2.97
2022-12-31T14:05:17.889Z,3.55
2022-12-31T14:07:47.638Z,3.47
2022-12-31T14:10:14.947Z,2.45
2022-12-31T14:12:53.348Z,2.20
2022-12-31T14:15:23.991Z,3.53
2022-12-31T14:17:53.556Z,2.45
2022-12-31T14:20:29.054Z,2.72
2022-12-31T14:23:15.457Z,3.17
2022-12-31T14:25:46.462Z,2.63
2022-12-31T14:28:18.651Z,3.08
2022-12-31T14:30:46.195Z,3.25
2022-12-31T14:33:21.448Z,2.63
2022-12-31T14:38:14.055Z,2.70
2022-12-31T14:40:55.757Z,3.30
2022-12-31T14:43:30.672Z,5.40
2022-12-31T14:46:04.049Z,3.88
2022-12-31T14:48:42.415Z,12.02
2022-12-31T14:51:09.187Z,6.82
2022-12-31T14:53:35.631Z,4.43
2022-12-31T14:56:04.226Z,5.22
2022-12-31T14:58:41.165Z,7.53
2022-12-31T15:01:22.179Z,8.52
2022-12-31T15:03:51.671Z,4.30
2022-12-31T15:06:21.079Z,4.22
2022-12-31T15:09:08.917Z,4.13
2022-12-31T15:11:54.041Z,5.30
2022-12-31T15:14:36.752Z,6.47
2022-12-31T15:17:22.249Z,6.22
2022-12-31T15:19:48.696Z,5.85
2022-12-31T15:22:18.128Z,6.03
2022-12-31T15:24:46.128Z,4.63
2022-12-31T15:27:27.836Z,6.57
2022-12-31T15:29:54.329Z,6.30
2022-12-31T15:32:25.136Z,8.10
2022-12-31T15:35:01.979Z,6.50
2022-12-31T15:37:35.425Z,5.68
2022-12-31T15:40:07.304Z,8.00
2022-12-31T15:42:45.887Z,9.45
2022-12-31T15:45:22.445Z,7.18
2022-12-31T15:47:52.440Z,6.78
2022-12-31T15:50:20.325Z,12.70
2022-12-31T15:52:52.822Z,7.63
2022-12-31T15:55:22.271Z,9.80
2022-12-31T15:57:49.387Z,14.88
2022-12-31T16:00:16.291Z,12.27
2022-12-31T16:02:43.288Z,10.98
2022-12-31T16:05:20.549Z,20.17
2022-12-31T16:07:47.371Z,11.82
2022-12-31T16:10:20.341Z,13.45
2022-12-31T16:12:46.915Z,19.23
2022-12-31T16:15:19.223Z,10.73
2022-12-31T16:17:46.578Z,4.78
2022-12-31T16:20:24.223Z,9.68
2022-12-31T16:22:52.972Z,6.22
2022-12-31T16:25:30.764Z,9.90
2022-12-31T16:27:58.325Z,5.18
2022-12-31T16:30:29.270Z,5.10
2022-12-31T16:32:58.280Z,5.20
2022-12-31T16:35:27.872Z,4.90
2022-12-31T16:38:03.685Z,7.78
2022-12-31T16:40:30.185Z,6.60
2022-12-31T16:42:56.495Z,13.43
2022-12-31T16:45:29.921Z,7.20
2022-12-31T16:47:56.807Z,9.57
2022-12-31T16:50:24.252Z,8.35
2022-12-31T16:52:55.894Z,8.15
2022-12-31T16:55:23.703Z,10.63
2022-12-31T16:57:55.794Z,4.65
2022-12-31T17:00:23.797Z,4.60
2022-12-31T17:03:00.683Z,5.00
2022-12-31T17:05:28.076Z,3.75
2022-12-31T17:07:55.135Z,6.35
2022-12-31T17:10:36.099Z,4.65
2022-12-31T17:15:56.261Z,4.15
2022-12-31T17:18:24.121Z,3.92
2022-12-31T17:20:51.813Z,4.68
2022-12-31T17:23:32.914Z,10.35
2022-12-31T17:26:00.652Z,4.32
2022-12-31T17:28:27.972Z,4.18
2022-12-31T17:30:58.382Z,3.65
2022-12-31T17:33:24.770Z,4.07
2022-12-31T17:36:13.690Z,5.25
2022-12-31T17:38:40.233Z,4.95
2022-12-31T17:41:06.612Z,6.07
2022-12-31T17:43:35.478Z,4.55
2022-12-31T17:46:02.759Z,22.77
2022-12-31T17:48:29.696Z,14.35
2022-12-31T17:50:57.318Z,5.68
2022-12-31T17:53:24.081Z,4.88
2022-12-31T17:55:51.943Z,7.40
2022-12-31T17:58:18.368Z,6.18
2022-12-31T18:00:44.946Z,7.82
2022-12-31T18:03:11.442Z,7.35
2022-12-31T18:05:37.970Z,45.42
2022-12-31T18:08:04.503Z,17.05
2022-12-31T18:10:34.341Z,9.63
2022-12-31T18:13:01.937Z,9.45
2022-12-31T18:15:28.325Z,9.60
2022-12-31T18:17:54.739Z,5.50
2022-12-31T18:20:21.226Z,7.90
2022-12-31T18:22:47.604Z,5.68
2022-12-31T18:25:16.833Z,11.82
2022-12-31T18:27:43.262Z,6.47
2022-12-31T18:30:10.670Z,5.50
2022-12-31T18:32:37.368Z,4.68
2022-12-31T18:35:04.213Z,7.15
2022-12-31T18:37:32.210Z,5.00
2022-12-31T18:39:58.649Z,6.78
2022-12-31T18:42:26.222Z,5.95
2022-12-31T18:44:52.583Z,4.50
2022-12-31T18:47:19.538Z,4.45
2022-12-31T18:49:48.462Z,4.35
2022-12-31T18:52:19.888Z,6.35
2022-12-31T18:54:46.327Z,4.93
2022-12-31T18:57:13.422Z,5.03
2022-12-31T18:59:39.806Z,5.68
2022-12-31T19:02:11.812Z,4.35
2022-12-31T19:04:38.223Z,3.85
2022-12-31T19:07:04.613Z,6.63
2022-12-31T19:09:45.309Z,5.47
2022-12-31T19:12:13.451Z,4.82
2022-12-31T19:14:39.857Z,6.38
2022-12-31T19:19:31.713Z,4.25
2022-12-31T19:21:58.191Z,5.18
2022-12-31T19:24:28.831Z,4.28
2022-12-31T19:26:55.313Z,4.97
2022-12-31T19:29:23.244Z,4.40
2022-12-31T19:31:49.884Z,4.38
2022-12-31T19:34:16.551Z,10.48
2022-12-31T19:36:44.337Z,84.55
2022-12-31T19:39:14.567Z,5.90
2022-12-31T19:41:44.379Z,6.47
2022-12-31T19:44:15.432Z,9.05
2022-12-31T19:46:41.985Z,5.63
2022-12-31T19:49:10.599Z,6.68
2022-12-31T19:51:37.000Z,5.90
2022-12-31T19:54:03.461Z,8.57
2022-12-31T19:56:29.795Z,7.70
2022-12-31T19:58:56.283Z,16.50
2022-12-31T20:01:23.691Z,12.88
2022-12-31T20:03:50.697Z,4.88
2022-12-31T20:06:17.645Z,6.45
2022-12-31T20:08:44.662Z,8.40
2022-12-31T20:11:12.292Z,9.20
2022-12-31T20:13:38.808Z,6.35
2022-12-31T20:16:09.332Z,5.68
2022-12-31T20:18:39.422Z,7.13
2022-12-31T20:21:19.784Z,5.72
2022-12-31T20:23:47.192Z,5.80
2022-12-31T20:26:13.740Z,26.48
2022-12-31T20:28:40.117Z,11.63
2022-12-31T20:31:11.029Z,7.70
2022-12-31T20:33:37.501Z,13.43
2022-12-31T20:36:04.642Z,13.07
2022-12-31T20:38:31.107Z,6.10
2022-12-31T20:41:08.170Z,5.68
2022-12-31T20:43:34.662Z,12.80
2022-12-31T20:46:09.399Z,6.80
2022-12-31T20:48:40.827Z,5.65
2022-12-31T20:51:07.186Z,6.30
2022-12-31T20:53:33.703Z,16.25
2022-12-31T20:56:06.812Z,6.47
2022-12-31T20:58:33.294Z,12.60
2022-12-31T21:00:59.806Z,11.90
2022-12-31T21:04:02.912Z,10.57
2022-12-31T21:06:12.770Z,5.38
2022-12-31T21:08:39.830Z,10.27
2022-12-31T21:11:25.334Z,4.57
2022-12-31T21:13:51.701Z,5.45
2022-12-31T21:16:18.237Z,7.53
2022-12-31T21:18:44.781Z,7.45
2022-12-31T21:21:11.460Z,5.78
2022-12-31T21:23:37.916Z,5.90
2022-12-31T21:26:04.782Z,6.45
2022-12-31T21:28:31.468Z,5.60
2022-12-31T21:31:01.904Z,11.45
2022-12-31T21:33:28.441Z,10.73
2022-12-31T21:35:58.580Z,5.55
2022-12-31T21:38:27.528Z,4.90
2022-12-31T21:40:53.866Z,5.55
2022-12-31T21:43:20.441Z,6.55
2022-12-31T21:45:46.836Z,9.65
2022-12-31T21:48:20.108Z,7.40
2022-12-31T21:50:50.776Z,7.10
2022-12-31T21:53:23.529Z,5.60
2022-12-31T21:56:08.770Z,6.65
2022-12-31T21:58:35.731Z,6.70
2022-12-31T22:01:20.658Z,6.53
2022-12-31T22:03:47.301Z,5.63
2022-12-31T22:06:20.523Z,6.47
2022-12-31T22:08:48.456Z,6.63
2022-12-31T22:11:14.886Z,8.70
2022-12-31T22:13:41.380Z,5.88
2022-12-31T22:16:08.353Z,6.47
2022-12-31T22:18:38.610Z,5.50
2022-12-31T22:21:05.279Z,5.07
2022-12-31T22:23:32.146Z,5.30
2022-12-31T22:25:58.645Z,5.45
2022-12-31T22:28:38.048Z,5.85
2022-12-31T22:31:05.191Z,5.07
2022-12-31T22:33:31.602Z,4.68
2022-12-31T22:35:58.988Z,8.68
2022-12-31T22:38:25.809Z,6.57
2022-12-31T22:40:52.223Z,6.93
2022-12-31T22:43:18.563Z,22.83
2022-12-31T22:45:44.947Z,23.60
2022-12-31T22:48:11.349Z,12.65
2022-12-31T22:50:37.686Z,11.38
2022-12-31T22:53:04.368Z,10.77
2022-12-31T22:55:31.099Z,12.85
2022-12-31T22:57:57.480Z,8.43
2022-12-31T23:00:28.073Z,25.65
2022-12-31T23:02:54.486Z,18.00
2022-12-31T23:05:20.889Z,23.38
2022-12-31T23:07:47.265Z,45.78
2022-12-31T23:10:32.192Z,95.25
2022-12-31T23:12:58.735Z,83.50
2022-12-31T23:15:43.738Z,47.58
2022-12-31T23:18:28.850Z,69.18
2022-12-31T23:21:13.867Z,96.68
2022-12-31T23:23:40.235Z,44.53
2022-12-31T23:26:06.955Z,134.25
2022-12-31T23:28:33.333Z,69.63
2022-12-31T23:30:59.831Z,59.53
2022-12-31T23:33:26.427Z,25.23
2022-12-31T23:36:03.368Z,29.92
2022-12-31T23:38:29.745Z,33.50
2022-12-31T23:40:56.117Z,28.45
2022-12-31T23:43:22.849Z,27.52
2022-12-31T23:45:52.547Z,25.27
2022-12-31T23:48:19.152Z,26.15
2022-12-31T23:50:52.671Z,25.77
2022-12-31T23:53:20.045Z,19.23
2022-12-31T23:55:46.425Z,17.90
2022-12-31T23:58:12.853Z,31.50
